sensor_id;sensor_type;location;lat;lon;timestamp;pressure;altitude;pressure_sealevel;temperature;humidity
22755;BME280;11544;42.020;23.094;2023-05-13T00:00:42;97618.94;;;11.86;100.00
22755;BME280;11544;42.020;23.094;2023-05-13T00:03:15;97624.81;;;11.66;100.00
22755;BME280;11544;42.020;23.094;2023-05-13T00:05:52;97634.47;;;12.16;100.00
22755;BME280;11544;42.020;23.094;2023-05-13T00:09:07;97632.31;;;11.77;100.00
22755;BME280;11544;42.020;23.094;2023-05-13T00:11:51;97643.63;;;11.76;100.00
22755;BME280;11544;42.020;23.094;2023-05-13T00:14:37;97638.53;;;11.99;100.00
22755;BME280;11544;42.020;23.094;2023-05-13T00:17:08;97642.06;;;11.98;100.00
22755;BME280;11544;42.020;23.094;2023-05-13T00:19:39;97639.03;;;12.11;100.00
22755;BME280;11544;42.020;23.094;2023-05-13T00:22:10;97640.13;;;12.03;100.00
22755;BME280;11544;42.020;23.094;2023-05-13T00:24:39;97642.38;;;12.39;100.00
22755;BME280;11544;42.020;23.094;2023-05-13T00:27:06;97640.56;;;12.65;100.00
22755;BME280;11544;42.020;23.094;2023-05-13T00:29:34;97637.81;;;12.44;100.00
22755;BME280;11544;42.020;23.094;2023-05-13T00:32:04;97641.16;;;12.24;100.00
22755;BME280;11544;42.020;23.094;2023-05-13T00:34:32;97634.47;;;12.41;100.00
22755;BME280;11544;42.020;23.094;2023-05-13T00:37:02;97637.47;;;12.05;100.00
22755;BME280;11544;42.020;23.094;2023-05-13T00:39:38;97639.81;;;12.13;100.00
22755;BME280;11544;42.020;23.094;2023-05-13T00:42:26;97646.75;;;12.14;100.00
22755;BME280;11544;42.020;23.094;2023-05-13T00:45:01;97644.66;;;11.98;100.00
22755;BME280;11544;42.020;23.094;2023-05-13T00:47:28;97649.03;;;12.23;100.00
22755;BME280;11544;42.020;23.094;2023-05-13T00:50:03;97646.53;;;12.20;100.00
22755;BME280;11544;42.020;23.094;2023-05-13T00:53:02;97650.78;;;11.97;100.00
22755;BME280;11544;42.020;23.094;2023-05-13T00:55:58;97643.97;;;12.18;100.00
22755;BME280;11544;42.020;23.094;2023-05-13T00:58:31;97651.44;;;12.04;100.00
22755;BME280;11544;42.020;23.094;2023-05-13T01:04:36;97655.28;;;11.94;100.00
22755;BME280;11544;42.020;23.094;2023-05-13T01:10:56;97651.25;;;11.83;100.00
22755;BME280;11544;42.020;23.094;2023-05-13T01:13:37;97642.09;;;11.97;100.00
22755;BME280;11544;42.020;23.094;2023-05-13T01:16:48;97644.88;;;11.65;100.00
22755;BME280;11544;42.020;23.094;2023-05-13T01:22:37;97655.34;;;11.64;100.00
22755;BME280;11544;42.020;23.094;2023-05-13T01:25:04;97654.50;;;11.63;100.00
22755;BME280;11544;42.020;23.094;2023-05-13T01:27:32;97659.00;;;11.85;100.00
22755;BME280;11544;42.020;23.094;2023-05-13T01:29:59;97661.06;;;11.75;100.00
22755;BME280;11544;42.020;23.094;2023-05-13T01:32:26;97668.38;;;11.92;100.00
22755;BME280;11544;42.020;23.094;2023-05-13T01:34:54;97660.19;;;12.03;100.00
22755;BME280;11544;42.020;23.094;2023-05-13T01:37:25;97665.03;;;12.14;100.00
22755;BME280;11544;42.020;23.094;2023-05-13T01:39:52;97665.69;;;11.95;100.00
22755;BME280;11544;42.020;23.094;2023-05-13T01:42:19;97662.78;;;11.76;100.00
22755;BME280;11544;42.020;23.094;2023-05-13T01:44:46;97662.34;;;11.90;100.00
22755;BME280;11544;42.020;23.094;2023-05-13T01:47:23;97661.47;;;11.91;100.00
22755;BME280;11544;42.020;23.094;2023-05-13T02:10:43;97668.75;;;11.80;100.00
22755;BME280;11544;42.020;23.094;2023-05-13T02:13:15;97675.25;;;11.68;100.00
22755;BME280;11544;42.020;23.094;2023-05-13T02:15:45;97680.44;;;11.70;100.00
22755;BME280;11544;42.020;23.094;2023-05-13T02:18:23;97690.22;;;11.63;100.00
22755;BME280;11544;42.020;23.094;2023-05-13T02:20:54;97698.34;;;11.54;100.00
22755;BME280;11544;42.020;23.094;2023-05-13T02:23:22;97696.44;;;11.59;100.00
22755;BME280;11544;42.020;23.094;2023-05-13T02:25:51;97692.22;;;11.81;100.00
22755;BME280;11544;42.020;23.094;2023-05-13T02:28:20;97695.75;;;11.52;100.00
22755;BME280;11544;42.020;23.094;2023-05-13T02:30:47;97696.72;;;11.50;100.00
22755;BME280;11544;42.020;23.094;2023-05-13T02:33:14;97697.47;;;11.25;100.00
22755;BME280;11544;42.020;23.094;2023-05-13T02:35:42;97688.69;;;11.82;100.00
22755;BME280;11544;42.020;23.094;2023-05-13T02:38:09;97690.81;;;11.43;100.00
22755;BME280;11544;42.020;23.094;2023-05-13T02:40:39;97681.75;;;11.55;100.00
22755;BME280;11544;42.020;23.094;2023-05-13T02:54:34;97692.03;;;11.59;100.00
22755;BME280;11544;42.020;23.094;2023-05-13T02:57:08;97692.16;;;11.56;100.00
22755;BME280;11544;42.020;23.094;2023-05-13T02:59:35;97703.50;;;11.55;100.00
22755;BME280;11544;42.020;23.094;2023-05-13T03:39:50;97727.81;;;11.29;100.00
22755;BME280;11544;42.020;23.094;2023-05-13T03:42:18;97724.38;;;10.97;100.00
22755;BME280;11544;42.020;23.094;2023-05-13T03:44:51;97738.28;;;10.98;100.00
22755;BME280;11544;42.020;23.094;2023-05-13T03:47:34;97736.53;;;10.98;100.00
22755;BME280;11544;42.020;23.094;2023-05-13T03:50:01;97744.75;;;11.14;100.00
22755;BME280;11544;42.020;23.094;2023-05-13T03:52:28;97738.78;;;11.11;100.00
22755;BME280;11544;42.020;23.094;2023-05-13T03:54:56;97738.09;;;11.04;100.00
22755;BME280;11544;42.020;23.094;2023-05-13T03:57:23;97742.81;;;11.21;100.00
22755;BME280;11544;42.020;23.094;2023-05-13T03:59:50;97743.53;;;11.26;100.00
22755;BME280;11544;42.020;23.094;2023-05-13T04:02:17;97748.78;;;11.54;100.00
22755;BME280;11544;42.020;23.094;2023-05-13T04:04:52;97751.09;;;11.65;100.00
22755;BME280;11544;42.020;23.094;2023-05-13T04:07:22;97745.59;;;11.73;100.00
22755;BME280;11544;42.020;23.094;2023-05-13T04:09:49;97741.31;;;11.72;100.00
22755;BME280;11544;42.020;23.094;2023-05-13T04:12:21;97748.38;;;11.38;100.00
22755;BME280;11544;42.020;23.094;2023-05-13T04:54:13;97750.25;;;12.19;100.00
22755;BME280;11544;42.020;23.094;2023-05-13T04:56:44;97747.56;;;11.94;100.00
22755;BME280;11544;42.020;23.094;2023-05-13T04:59:14;97754.97;;;11.80;100.00
22755;BME280;11544;42.020;23.094;2023-05-13T05:01:41;97759.06;;;12.42;100.00
22755;BME280;11544;42.020;23.094;2023-05-13T05:04:08;97760.50;;;12.50;100.00
22755;BME280;11544;42.020;23.094;2023-05-13T05:06:36;97753.09;;;12.12;100.00
22755;BME280;11544;42.020;23.094;2023-05-13T05:09:04;97769.69;;;12.11;100.00
22755;BME280;11544;42.020;23.094;2023-05-13T05:11:31;97763.78;;;12.57;100.00
22755;BME280;11544;42.020;23.094;2023-05-13T05:14:01;97769.69;;;12.62;100.00
22755;BME280;11544;42.020;23.094;2023-05-13T05:16:28;97770.72;;;12.32;100.00
22755;BME280;11544;42.020;23.094;2023-05-13T05:18:55;97775.00;;;12.34;100.00
22755;BME280;11544;42.020;23.094;2023-05-13T05:21:22;97766.19;;;12.37;100.00
22755;BME280;11544;42.020;23.094;2023-05-13T05:23:49;97766.31;;;12.59;100.00
22755;BME280;11544;42.020;23.094;2023-05-13T05:26:15;97754.94;;;12.35;100.00
22755;BME280;11544;42.020;23.094;2023-05-13T05:28:45;97749.63;;;12.63;100.00
22755;BME280;11544;42.020;23.094;2023-05-13T05:31:12;97737.25;;;12.91;100.00
22755;BME280;11544;42.020;23.094;2023-05-13T05:33:39;97740.47;;;12.49;100.00
22755;BME280;11544;42.020;23.094;2023-05-13T05:36:07;97746.19;;;12.86;100.00
22755;BME280;11544;42.020;23.094;2023-05-13T05:38:34;97733.09;;;12.86;100.00
22755;BME280;11544;42.020;23.094;2023-05-13T05:41:01;97730.19;;;12.70;100.00
22755;BME280;11544;42.020;23.094;2023-05-13T05:43:27;97716.91;;;13.23;100.00
22755;BME280;11544;42.020;23.094;2023-05-13T05:45:56;97722.69;;;13.08;100.00
22755;BME280;11544;42.020;23.094;2023-05-13T05:48:23;97733.78;;;12.91;100.00
22755;BME280;11544;42.020;23.094;2023-05-13T05:50:50;97732.78;;;13.64;100.00
22755;BME280;11544;42.020;23.094;2023-05-13T05:53:19;97735.06;;;13.04;100.00
22755;BME280;11544;42.020;23.094;2023-05-13T05:55:46;97742.69;;;13.80;100.00
22755;BME280;11544;42.020;23.094;2023-05-13T05:58:14;97744.38;;;13.59;100.00
22755;BME280;11544;42.020;23.094;2023-05-13T06:00:41;97744.16;;;14.07;100.00
22755;BME280;11544;42.020;23.094;2023-05-13T06:03:08;97753.69;;;13.88;100.00
22755;BME280;11544;42.020;23.094;2023-05-13T06:05:35;97745.69;;;13.91;100.00
22755;BME280;11544;42.020;23.094;2023-05-13T06:08:02;97749.38;;;13.18;100.00
22755;BME280;11544;42.020;23.094;2023-05-13T06:10:29;97754.59;;;13.43;100.00
22755;BME280;11544;42.020;23.094;2023-05-13T06:12:56;97748.19;;;13.72;100.00
22755;BME280;11544;42.020;23.094;2023-05-13T06:15:22;97745.19;;;13.13;100.00
22755;BME280;11544;42.020;23.094;2023-05-13T06:17:49;97740.47;;;13.47;100.00
22755;BME280;11544;42.020;23.094;2023-05-13T06:20:16;97750.69;;;13.53;100.00
22755;BME280;11544;42.020;23.094;2023-05-13T06:22:43;97738.38;;;15.22;100.00
22755;BME280;11544;42.020;23.094;2023-05-13T06:25:10;97719.16;;;15.96;100.00
22755;BME280;11544;42.020;23.094;2023-05-13T06:27:37;97713.25;;;15.73;100.00
22755;BME280;11544;42.020;23.094;2023-05-13T06:30:04;97703.69;;;16.24;100.00
22755;BME280;11544;42.020;23.094;2023-05-13T06:32:31;97710.66;;;17.43;100.00
22755;BME280;11544;42.020;23.094;2023-05-13T06:35:02;97712.75;;;17.04;100.00
22755;BME280;11544;42.020;23.094;2023-05-13T06:37:28;97701.75;;;17.29;97.43
22755;BME280;11544;42.020;23.094;2023-05-13T06:39:55;97698.28;;;16.96;94.31
22755;BME280;11544;42.020;23.094;2023-05-13T06:42:23;97700.91;;;16.96;100.00
22755;BME280;11544;42.020;23.094;2023-05-13T06:44:50;97689.38;;;17.62;94.19
22755;BME280;11544;42.020;23.094;2023-05-13T06:47:18;97693.13;;;17.26;95.15
22755;BME280;11544;42.020;23.094;2023-05-13T06:49:49;97684.63;;;17.52;93.46
22755;BME280;11544;42.020;23.094;2023-05-13T06:52:16;97681.19;;;16.69;93.78
22755;BME280;11544;42.020;23.094;2023-05-13T06:54:43;97691.00;;;16.33;100.00
22755;BME280;11544;42.020;23.094;2023-05-13T06:57:20;97670.66;;;17.98;98.11
22755;BME280;11544;42.020;23.094;2023-05-13T07:00:03;97677.28;;;18.50;93.93
22755;BME280;11544;42.020;23.094;2023-05-13T07:02:30;97676.03;;;18.27;96.09
22755;BME280;11544;42.020;23.094;2023-05-13T07:04:56;97673.16;;;18.60;94.70
22755;BME280;11544;42.020;23.094;2023-05-13T07:07:23;97670.53;;;19.03;90.46
22755;BME280;11544;42.020;23.094;2023-05-13T07:09:50;97661.97;;;18.85;87.58
22755;BME280;11544;42.020;23.094;2023-05-13T07:12:17;97678.13;;;17.74;92.57
22755;BME280;11544;42.020;23.094;2023-05-13T07:14:44;97671.69;;;17.80;92.20
22755;BME280;11544;42.020;23.094;2023-05-13T07:17:11;97663.63;;;18.43;86.20
22755;BME280;11544;42.020;23.094;2023-05-13T07:19:38;97669.94;;;17.48;93.00
22755;BME280;11544;42.020;23.094;2023-05-13T07:22:16;97674.53;;;17.61;94.74
22755;BME280;11544;42.020;23.094;2023-05-13T07:24:43;97683.38;;;18.22;95.81
22755;BME280;11544;42.020;23.094;2023-05-13T07:27:12;97684.59;;;19.03;92.36
22755;BME280;11544;42.020;23.094;2023-05-13T07:29:46;97683.34;;;18.66;91.17
22755;BME280;11544;42.020;23.094;2023-05-13T07:32:14;97667.94;;;18.44;87.26
22755;BME280;11544;42.020;23.094;2023-05-13T07:34:49;97676.94;;;18.26;90.32
22755;BME280;11544;42.020;23.094;2023-05-13T07:37:18;97673.00;;;18.77;87.11
22755;BME280;11544;42.020;23.094;2023-05-13T07:39:45;97671.66;;;18.85;87.66
22755;BME280;11544;42.020;23.094;2023-05-13T07:42:15;97677.53;;;19.04;81.02
22755;BME280;11544;42.020;23.094;2023-05-13T07:44:45;97678.66;;;18.86;81.39
22755;BME280;11544;42.020;23.094;2023-05-13T07:47:12;97674.97;;;19.02;75.69
22755;BME280;11544;42.020;23.094;2023-05-13T07:49:41;97676.22;;;19.11;72.67
22755;BME280;11544;42.020;23.094;2023-05-13T07:52:07;97667.66;;;19.76;75.02
22755;BME280;11544;42.020;23.094;2023-05-13T07:54:35;97675.69;;;20.15;72.10
22755;BME280;11544;42.020;23.094;2023-05-13T07:57:02;97670.41;;;19.60;71.05
22755;BME280;11544;42.020;23.094;2023-05-13T07:59:43;97670.97;;;19.80;73.42
22755;BME280;11544;42.020;23.094;2023-05-13T08:02:10;97671.78;;;20.07;71.91
22755;BME280;11544;42.020;23.094;2023-05-13T08:04:38;97670.75;;;20.23;70.00
22755;BME280;11544;42.020;23.094;2023-05-13T08:07:05;97670.63;;;20.12;70.22
22755;BME280;11544;42.020;23.094;2023-05-13T08:09:46;97677.09;;;19.39;69.00
22755;BME280;11544;42.020;23.094;2023-05-13T08:12:36;97671.44;;;19.72;67.86
22755;BME280;11544;42.020;23.094;2023-05-13T08:15:06;97677.25;;;20.44;62.22
22755;BME280;11544;42.020;23.094;2023-05-13T08:17:57;97675.94;;;20.24;62.91
22755;BME280;11544;42.020;23.094;2023-05-13T08:20:24;97668.41;;;20.18;60.24
22755;BME280;11544;42.020;23.094;2023-05-13T08:22:56;97660.03;;;20.12;57.67
22755;BME280;11544;42.020;23.094;2023-05-13T08:25:23;97666.47;;;20.07;56.27
22755;BME280;11544;42.020;23.094;2023-05-13T08:27:50;97660.13;;;19.97;59.60
22755;BME280;11544;42.020;23.094;2023-05-13T08:30:17;97656.34;;;20.14;59.95
22755;BME280;11544;42.020;23.094;2023-05-13T08:32:44;97643.88;;;20.55;60.35
22755;BME280;11544;42.020;23.094;2023-05-13T08:35:14;97650.97;;;20.41;59.58
22755;BME280;11544;42.020;23.094;2023-05-13T08:37:41;97635.50;;;20.35;61.36
22755;BME280;11544;42.020;23.094;2023-05-13T08:40:14;97626.19;;;20.93;56.99
22755;BME280;11544;42.020;23.094;2023-05-13T08:42:52;97625.03;;;20.98;54.90
22755;BME280;11544;42.020;23.094;2023-05-13T08:45:31;97628.41;;;20.36;54.70
22755;BME280;11544;42.020;23.094;2023-05-13T08:48:00;97619.13;;;19.90;57.67
22755;BME280;11544;42.020;23.094;2023-05-13T08:50:28;97628.97;;;20.79;55.44
22755;BME280;11544;42.020;23.094;2023-05-13T08:53:01;97626.81;;;20.97;58.16
22755;BME280;11544;42.020;23.094;2023-05-13T08:55:38;97622.53;;;20.05;54.69
22755;BME280;11544;42.020;23.094;2023-05-13T08:58:06;97620.56;;;20.08;55.45
22755;BME280;11544;42.020;23.094;2023-05-13T09:00:34;97604.13;;;21.06;55.74
22755;BME280;11544;42.020;23.094;2023-05-13T09:03:01;97619.34;;;20.65;56.70
22755;BME280;11544;42.020;23.094;2023-05-13T09:05:28;97620.91;;;20.55;52.99
22755;BME280;11544;42.020;23.094;2023-05-13T09:08:07;97619.00;;;20.32;54.49
22755;BME280;11544;42.020;23.094;2023-05-13T09:10:36;97617.50;;;20.79;53.62
22755;BME280;11544;42.020;23.094;2023-05-13T09:13:03;97622.91;;;20.26;52.74
22755;BME280;11544;42.020;23.094;2023-05-13T09:15:32;97625.63;;;20.12;54.48
22755;BME280;11544;42.020;23.094;2023-05-13T09:18:03;97617.28;;;20.18;54.63
22755;BME280;11544;42.020;23.094;2023-05-13T09:20:41;97605.50;;;20.99;53.69
22755;BME280;11544;42.020;23.094;2023-05-13T09:23:17;97615.13;;;21.12;56.14
22755;BME280;11544;42.020;23.094;2023-05-13T09:25:44;97611.84;;;21.33;56.38
22755;BME280;11544;42.020;23.094;2023-05-13T09:28:13;97611.13;;;21.44;53.54
22755;BME280;11544;42.020;23.094;2023-05-13T09:30:41;97609.75;;;21.38;54.90
22755;BME280;11544;42.020;23.094;2023-05-13T09:33:16;97601.00;;;21.97;56.15
22755;BME280;11544;42.020;23.094;2023-05-13T09:38:25;97600.16;;;22.08;57.02
22755;BME280;11544;42.020;23.094;2023-05-13T09:41:02;97600.06;;;21.50;57.68
22755;BME280;11544;42.020;23.094;2023-05-13T09:43:32;97599.22;;;21.12;58.75
22755;BME280;11544;42.020;23.094;2023-05-13T09:46:01;97603.50;;;21.98;56.84
22755;BME280;11544;42.020;23.094;2023-05-13T09:48:33;97603.25;;;21.90;54.91
22755;BME280;11544;42.020;23.094;2023-05-13T09:51:09;97597.13;;;21.66;53.79
22755;BME280;11544;42.020;23.094;2023-05-13T09:53:35;97598.28;;;21.38;54.44
22755;BME280;11544;42.020;23.094;2023-05-13T09:56:02;97593.03;;;21.62;55.10
22755;BME280;11544;42.020;23.094;2023-05-13T09:58:32;97598.25;;;20.13;54.31
22755;BME280;11544;42.020;23.094;2023-05-13T10:01:00;97595.19;;;21.07;56.32
22755;BME280;11544;42.020;23.094;2023-05-13T10:03:27;97599.50;;;21.21;55.41
22755;BME280;11544;42.020;23.094;2023-05-13T10:06:09;97607.84;;;21.64;56.14
22755;BME280;11544;42.020;23.094;2023-05-13T10:08:37;97607.50;;;21.08;56.44
22755;BME280;11544;42.020;23.094;2023-05-13T10:11:10;97608.78;;;21.87;57.10
22755;BME280;11544;42.020;23.094;2023-05-13T10:13:42;97607.88;;;22.35;54.37
22755;BME280;11544;42.020;23.094;2023-05-13T10:16:26;97611.25;;;21.66;55.30
22755;BME280;11544;42.020;23.094;2023-05-13T10:18:54;97607.28;;;21.35;55.72
22755;BME280;11544;42.020;23.094;2023-05-13T10:21:21;97609.09;;;21.71;54.83
22755;BME280;11544;42.020;23.094;2023-05-13T10:23:49;97613.22;;;21.14;54.74
22755;BME280;11544;42.020;23.094;2023-05-13T10:26:20;97607.56;;;20.44;56.84
22755;BME280;11544;42.020;23.094;2023-05-13T10:28:49;97601.69;;;21.40;55.81
22755;BME280;11544;42.020;23.094;2023-05-13T10:31:17;97592.16;;;21.61;53.80
22755;BME280;11544;42.020;23.094;2023-05-13T10:33:47;97595.00;;;21.71;54.04
22755;BME280;11544;42.020;23.094;2023-05-13T10:42:27;97589.97;;;21.55;52.45
22755;BME280;11544;42.020;23.094;2023-05-13T10:45:01;97588.41;;;21.88;52.94
22755;BME280;11544;42.020;23.094;2023-05-13T10:47:32;97582.16;;;22.00;53.09
22755;BME280;11544;42.020;23.094;2023-05-13T10:50:04;97571.81;;;22.08;52.23
22755;BME280;11544;42.020;23.094;2023-05-13T10:52:42;97577.78;;;21.52;53.67
22755;BME280;11544;42.020;23.094;2023-05-13T10:55:15;97575.47;;;21.48;53.25
22755;BME280;11544;42.020;23.094;2023-05-13T10:58:02;97569.16;;;21.73;53.51
22755;BME280;11544;42.020;23.094;2023-05-13T11:00:30;97567.09;;;21.17;52.87
22755;BME280;11544;42.020;23.094;2023-05-13T11:03:08;97570.81;;;21.39;53.62
22755;BME280;11544;42.020;23.094;2023-05-13T11:05:38;97579.03;;;21.95;54.61
22755;BME280;11544;42.020;23.094;2023-05-13T11:08:05;97575.44;;;22.07;52.71
22755;BME280;11544;42.020;23.094;2023-05-13T11:10:39;97583.41;;;22.07;52.75
22755;BME280;11544;42.020;23.094;2023-05-13T11:15:48;97579.19;;;21.69;54.32
22755;BME280;11544;42.020;23.094;2023-05-13T11:18:16;97584.13;;;21.74;53.97
22755;BME280;11544;42.020;23.094;2023-05-13T11:21:02;97571.03;;;21.35;54.22
22755;BME280;11544;42.020;23.094;2023-05-13T11:23:49;97572.25;;;21.55;53.99
22755;BME280;11544;42.020;23.094;2023-05-13T11:26:17;97558.41;;;21.39;54.16
22755;BME280;11544;42.020;23.094;2023-05-13T11:29:04;97563.56;;;21.89;54.35
22755;BME280;11544;42.020;23.094;2023-05-13T11:34:14;97561.00;;;21.76;54.35
22755;BME280;11544;42.020;23.094;2023-05-13T11:36:46;97550.94;;;22.15;52.34
22755;BME280;11544;42.020;23.094;2023-05-13T11:39:18;97551.31;;;21.75;52.73
22755;BME280;11544;42.020;23.094;2023-05-13T11:41:50;97558.56;;;21.73;52.60
22755;BME280;11544;42.020;23.094;2023-05-13T11:44:19;97552.69;;;21.45;53.17
22755;BME280;11544;42.020;23.094;2023-05-13T11:46:59;97543.91;;;21.56;52.93
22755;BME280;11544;42.020;23.094;2023-05-13T11:49:45;97551.47;;;21.49;52.60
22755;BME280;11544;42.020;23.094;2023-05-13T11:52:15;97550.47;;;22.10;53.02
22755;BME280;11544;42.020;23.094;2023-05-13T11:54:48;97547.91;;;22.08;50.35
22755;BME280;11544;42.020;23.094;2023-05-13T11:57:28;97549.84;;;21.60;50.98
22755;BME280;11544;42.020;23.094;2023-05-13T12:00:00;97546.44;;;22.39;50.46
22755;BME280;11544;42.020;23.094;2023-05-13T12:02:35;97543.66;;;22.52;48.63
22755;BME280;11544;42.020;23.094;2023-05-13T12:05:05;97541.81;;;22.53;48.78
22755;BME280;11544;42.020;23.094;2023-05-13T12:07:34;97542.31;;;22.24;49.72
22755;BME280;11544;42.020;23.094;2023-05-13T12:10:02;97539.97;;;22.19;49.28
22755;BME280;11544;42.020;23.094;2023-05-13T12:12:39;97536.56;;;22.06;48.01
22755;BME280;11544;42.020;23.094;2023-05-13T12:15:10;97535.31;;;21.76;47.71
22755;BME280;11544;42.020;23.094;2023-05-13T12:17:37;97538.34;;;21.94;46.84
22755;BME280;11544;42.020;23.094;2023-05-13T12:28:23;97530.88;;;21.88;48.85
22755;BME280;11544;42.020;23.094;2023-05-13T12:30:57;97532.56;;;21.54;49.39
22755;BME280;11544;42.020;23.094;2023-05-13T12:36:13;97516.00;;;22.21;48.96
22755;BME280;11544;42.020;23.094;2023-05-13T12:38:58;97512.88;;;21.92;46.61
22755;BME280;11544;42.020;23.094;2023-05-13T12:41:50;97510.19;;;22.61;46.30
22755;BME280;11544;42.020;23.094;2023-05-13T12:44:20;97497.78;;;22.28;45.77
22755;BME280;11544;42.020;23.094;2023-05-13T12:49:17;97484.00;;;22.34;45.87
22755;BME280;11544;42.020;23.094;2023-05-13T12:51:44;97485.38;;;21.82;46.30
22755;BME280;11544;42.020;23.094;2023-05-13T12:54:11;97479.13;;;21.94;46.28
22755;BME280;11544;42.020;23.094;2023-05-13T12:56:37;97465.53;;;22.44;46.49
22755;BME280;11544;42.020;23.094;2023-05-13T12:59:08;97461.91;;;22.22;44.63
22755;BME280;11544;42.020;23.094;2023-05-13T13:01:35;97454.31;;;22.40;45.93
22755;BME280;11544;42.020;23.094;2023-05-13T13:04:02;97446.56;;;22.14;45.99
22755;BME280;11544;42.020;23.094;2023-05-13T13:06:30;97444.31;;;22.21;46.59
22755;BME280;11544;42.020;23.094;2023-05-13T13:08:58;97442.91;;;22.60;45.60
22755;BME280;11544;42.020;23.094;2023-05-13T13:11:24;97437.91;;;22.35;45.83
22755;BME280;11544;42.020;23.094;2023-05-13T13:13:51;97443.06;;;22.36;46.02
22755;BME280;11544;42.020;23.094;2023-05-13T13:16:18;97438.13;;;22.87;44.96
22755;BME280;11544;42.020;23.094;2023-05-13T13:18:50;97430.06;;;22.99;44.94
22755;BME280;11544;42.020;23.094;2023-05-13T13:21:21;97429.56;;;22.94;44.18
22755;BME280;11544;42.020;23.094;2023-05-13T13:23:47;97431.31;;;22.73;44.83
22755;BME280;11544;42.020;23.094;2023-05-13T13:26:14;97439.59;;;23.02;44.98
22755;BME280;11544;42.020;23.094;2023-05-13T13:28:41;97440.13;;;22.73;45.23
22755;BME280;11544;42.020;23.094;2023-05-13T13:31:08;97439.16;;;22.74;45.86
22755;BME280;11544;42.020;23.094;2023-05-13T13:33:34;97443.50;;;22.75;46.71
22755;BME280;11544;42.020;23.094;2023-05-13T13:36:04;97436.59;;;22.84;45.28
22755;BME280;11544;42.020;23.094;2023-05-13T13:38:31;97438.75;;;22.90;45.36
22755;BME280;11544;42.020;23.094;2023-05-13T13:40:58;97446.66;;;22.58;46.91
22755;BME280;11544;42.020;23.094;2023-05-13T13:43:24;97440.56;;;22.35;48.07
22755;BME280;11544;42.020;23.094;2023-05-13T13:45:51;97438.19;;;22.75;48.03
22755;BME280;11544;42.020;23.094;2023-05-13T13:48:21;97428.97;;;22.79;48.38
22755;BME280;11544;42.020;23.094;2023-05-13T13:50:48;97437.50;;;22.17;47.26
22755;BME280;11544;42.020;23.094;2023-05-13T13:53:18;97434.28;;;22.47;47.04
22755;BME280;11544;42.020;23.094;2023-05-13T13:55:44;97437.28;;;22.54;47.05
22755;BME280;11544;42.020;23.094;2023-05-13T13:58:13;97438.47;;;22.61;47.76
22755;BME280;11544;42.020;23.094;2023-05-13T14:00:41;97433.28;;;22.48;47.30
22755;BME280;11544;42.020;23.094;2023-05-13T14:03:13;97434.47;;;22.67;47.29
22755;BME280;11544;42.020;23.094;2023-05-13T14:05:40;97428.41;;;22.76;46.92
22755;BME280;11544;42.020;23.094;2023-05-13T14:08:07;97427.88;;;22.50;47.11
22755;BME280;11544;42.020;23.094;2023-05-13T14:10:34;97425.56;;;22.45;47.03
22755;BME280;11544;42.020;23.094;2023-05-13T14:13:04;97417.25;;;22.50;46.66
22755;BME280;11544;42.020;23.094;2023-05-13T14:15:33;97431.25;;;22.52;47.41
22755;BME280;11544;42.020;23.094;2023-05-13T14:18:05;97425.41;;;22.69;46.71
22755;BME280;11544;42.020;23.094;2023-05-13T14:20:37;97415.03;;;22.55;45.58
22755;BME280;11544;42.020;23.094;2023-05-13T14:23:04;97421.44;;;22.64;46.67
22755;BME280;11544;42.020;23.094;2023-05-13T14:25:32;97421.66;;;22.72;45.98
22755;BME280;11544;42.020;23.094;2023-05-13T14:28:05;97409.63;;;22.45;45.12
22755;BME280;11544;42.020;23.094;2023-05-13T14:30:33;97407.31;;;22.63;46.06
22755;BME280;11544;42.020;23.094;2023-05-13T14:32:59;97414.75;;;22.80;45.35
22755;BME280;11544;42.020;23.094;2023-05-13T14:35:26;97420.53;;;22.74;46.11
22755;BME280;11544;42.020;23.094;2023-05-13T14:37:54;97415.53;;;22.49;45.78
22755;BME280;11544;42.020;23.094;2023-05-13T14:40:21;97419.25;;;22.69;45.12
22755;BME280;11544;42.020;23.094;2023-05-13T14:42:48;97415.03;;;22.66;45.36
22755;BME280;11544;42.020;23.094;2023-05-13T14:45:15;97415.69;;;22.79;45.36
22755;BME280;11544;42.020;23.094;2023-05-13T14:47:51;97413.94;;;22.69;45.46
22755;BME280;11544;42.020;23.094;2023-05-13T14:53:07;97421.22;;;22.10;46.14
22755;BME280;11544;42.020;23.094;2023-05-13T14:55:37;97412.44;;;22.21;46.92
22755;BME280;11544;42.020;23.094;2023-05-13T14:58:04;97408.44;;;21.93;47.07
22755;BME280;11544;42.020;23.094;2023-05-13T15:00:40;97406.16;;;21.99;47.27
22755;BME280;11544;42.020;23.094;2023-05-13T15:03:10;97402.78;;;22.09;47.37
22755;BME280;11544;42.020;23.094;2023-05-13T15:05:51;97411.22;;;22.14;46.58
22755;BME280;11544;42.020;23.094;2023-05-13T15:08:18;97406.53;;;22.29;46.53
22755;BME280;11544;42.020;23.094;2023-05-13T15:10:45;97419.03;;;21.70;47.47
22755;BME280;11544;42.020;23.094;2023-05-13T15:13:18;97415.63;;;21.46;47.67
22755;BME280;11544;42.020;23.094;2023-05-13T15:15:52;97420.44;;;21.52;47.91
22755;BME280;11544;42.020;23.094;2023-05-13T15:18:20;97419.75;;;21.50;48.74
22755;BME280;11544;42.020;23.094;2023-05-13T15:20:46;97419.59;;;21.51;48.49
22755;BME280;11544;42.020;23.094;2023-05-13T15:23:22;97423.59;;;21.68;48.78
22755;BME280;11544;42.020;23.094;2023-05-13T15:25:50;97418.56;;;21.76;48.68
22755;BME280;11544;42.020;23.094;2023-05-13T15:28:16;97415.88;;;21.65;49.28
22755;BME280;11544;42.020;23.094;2023-05-13T15:30:43;97407.03;;;21.42;49.55
22755;BME280;11544;42.020;23.094;2023-05-13T15:33:16;97404.53;;;21.41;50.08